YBCV

Details ICAO YBCV (CTL)
Name Charleville
Region Australia
Timezone Australia/Brisbane (UTC+10.0)
Plans Departing 565
Arriving 556
Stats Elevation 1,003 ft / 306 m (AMSL)
Location -26.415300° 146.262000°
Runways 2
Magnetic Variation 8.686° E
Sunrise 2020-04-07 20:28:33 UTC / 2020-04-08 06:28:33 Local
Sunset 2020-04-08 08:07:16 UTC / 2020-04-08 18:07:16 Local
Advertisement - Login to hide

Runways

ID Width Length Bearing (true/mag) Surface Threshold Overrun Markings Lighting
12 98 ft / 30 m 5,010 ft / 1,527 m 137.17° / 128.49° ASPHALT 0 ft / 0 m 492 ft / 150 m APP EDGE THRESHOLD
18 75 ft / 23 m 3,512 ft / 1,071 m 181.96° / 173.27° ASPHALT 0 ft / 0 m 1,683 ft / 513 m VISUAL
30 98 ft / 30 m 5,010 ft / 1,527 m 317.17° / 308.48° ASPHALT 0 ft / 0 m 600 ft / 183 m APP EDGE THRESHOLD
36 75 ft / 23 m 3,512 ft / 1,071 m 1.96° / 353.27° ASPHALT 0 ft / 0 m 207 ft / 63 m VISUAL

Map

Weather


0- 5 10 15 20 25 30 35+ Temperature / °C

Clouds and Precipitation
Forecast for 2020-04-08 00:00 UTC. Updated 5 hours ago

Ground ~20,000 ft ~40,000 ft Winds

METAR

YBCV 080200Z AUTO 09003KT 9999 // NCD 26/07 Q1017

TAF

Not found

Frequencies

Unicom 126.70 MHz CTAF
Warning: Do not use this data for real-world aviation or navigation. No guarantee of current accuracy is given.